sensor_id;sensor_type;location;lat;lon;timestamp;temperature;humidity
39969;DHT22;25648;47.808;19.004;2022-08-25T00:00:20;28.90;70.20
39969;DHT22;25648;47.808;19.004;2022-08-25T00:02:46;29.00;70.20
39969;DHT22;25648;47.808;19.004;2022-08-25T00:05:12;28.90;70.50
39969;DHT22;25648;47.808;19.004;2022-08-25T00:07:38;28.90;70.50
39969;DHT22;25648;47.808;19.004;2022-08-25T00:10:04;28.90;70.80
39969;DHT22;25648;47.808;19.004;2022-08-25T00:12:30;28.80;70.60
39969;DHT22;25648;47.808;19.004;2022-08-25T00:14:56;28.90;70.30
39969;DHT22;25648;47.808;19.004;2022-08-25T00:17:22;28.80;70.80
39969;DHT22;25648;47.808;19.004;2022-08-25T00:19:48;28.70;71.40
39969;DHT22;25648;47.808;19.004;2022-08-25T00:22:14;28.70;71.30
39969;DHT22;25648;47.808;19.004;2022-08-25T00:24:40;28.80;70.60
39969;DHT22;25648;47.808;19.004;2022-08-25T00:27:05;28.70;71.10
39969;DHT22;25648;47.808;19.004;2022-08-25T00:29:32;28.80;70.60
39969;DHT22;25648;47.808;19.004;2022-08-25T00:31:58;28.90;70.30
39969;DHT22;25648;47.808;19.004;2022-08-25T00:34:30;29.00;70.20
39969;DHT22;25648;47.808;19.004;2022-08-25T00:36:59;29.10;69.80
39969;DHT22;25648;47.808;19.004;2022-08-25T00:39:26;29.10;69.70
39969;DHT22;25648;47.808;19.004;2022-08-25T00:41:53;29.00;70.10
39969;DHT22;25648;47.808;19.004;2022-08-25T00:44:22;28.80;70.90
39969;DHT22;25648;47.808;19.004;2022-08-25T00:46:52;28.80;70.70
39969;DHT22;25648;47.808;19.004;2022-08-25T00:49:38;28.90;70.20
39969;DHT22;25648;47.808;19.004;2022-08-25T00:52:15;28.90;70.20
39969;DHT22;25648;47.808;19.004;2022-08-25T00:54:44;28.90;70.00
39969;DHT22;25648;47.808;19.004;2022-08-25T00:57:14;29.00;70.00
39969;DHT22;25648;47.808;19.004;2022-08-25T00:59:41;28.80;70.50
39969;DHT22;25648;47.808;19.004;2022-08-25T01:02:10;28.80;70.40
39969;DHT22;25648;47.808;19.004;2022-08-25T01:04:35;28.80;70.30
39969;DHT22;25648;47.808;19.004;2022-08-25T01:07:02;28.80;70.30
39969;DHT22;25648;47.808;19.004;2022-08-25T01:09:30;28.80;70.20
39969;DHT22;25648;47.808;19.004;2022-08-25T01:11:58;28.80;70.20
39969;DHT22;25648;47.808;19.004;2022-08-25T01:14:24;28.90;70.10
39969;DHT22;25648;47.808;19.004;2022-08-25T01:16:51;28.90;70.10
39969;DHT22;25648;47.808;19.004;2022-08-25T01:19:18;29.00;70.00
39969;DHT22;25648;47.808;19.004;2022-08-25T01:21:48;29.00;69.90
39969;DHT22;25648;47.808;19.004;2022-08-25T01:24:55;29.00;69.70
39969;DHT22;25648;47.808;19.004;2022-08-25T01:27:22;29.00;69.50
39969;DHT22;25648;47.808;19.004;2022-08-25T01:29:48;28.90;69.40
39969;DHT22;25648;47.808;19.004;2022-08-25T01:32:14;28.90;69.50
39969;DHT22;25648;47.808;19.004;2022-08-25T01:34:41;28.90;69.70
39969;DHT22;25648;47.808;19.004;2022-08-25T01:37:10;28.80;69.80
39969;DHT22;25648;47.808;19.004;2022-08-25T01:39:35;28.90;69.50
39969;DHT22;25648;47.808;19.004;2022-08-25T01:44:27;29.00;69.10
39969;DHT22;25648;47.808;19.004;2022-08-25T01:46:53;28.70;69.50
39969;DHT22;25648;47.808;19.004;2022-08-25T01:49:19;28.30;70.90
39969;DHT22;25648;47.808;19.004;2022-08-25T01:51:59;28.30;71.00
39969;DHT22;25648;47.808;19.004;2022-08-25T01:54:25;28.50;70.30
39969;DHT22;25648;47.808;19.004;2022-08-25T01:56:51;28.50;70.00
39969;DHT22;25648;47.808;19.004;2022-08-25T01:59:18;28.10;71.10
39969;DHT22;25648;47.808;19.004;2022-08-25T02:01:44;28.00;71.90
39969;DHT22;25648;47.808;19.004;2022-08-25T02:04:10;27.90;71.70
39969;DHT22;25648;47.808;19.004;2022-08-25T02:06:37;27.90;71.70
39969;DHT22;25648;47.808;19.004;2022-08-25T02:09:13;27.90;71.50
39969;DHT22;25648;47.808;19.004;2022-08-25T02:11:42;28.00;71.10
39969;DHT22;25648;47.808;19.004;2022-08-25T02:14:09;28.20;70.50
39969;DHT22;25648;47.808;19.004;2022-08-25T02:16:37;28.20;70.90
39969;DHT22;25648;47.808;19.004;2022-08-25T02:19:06;28.10;71.20
39969;DHT22;25648;47.808;19.004;2022-08-25T02:21:33;27.90;71.40
39969;DHT22;25648;47.808;19.004;2022-08-25T02:23:59;28.10;71.30
39969;DHT22;25648;47.808;19.004;2022-08-25T02:26:26;27.90;71.70
39969;DHT22;25648;47.808;19.004;2022-08-25T02:28:52;27.80;72.20
39969;DHT22;25648;47.808;19.004;2022-08-25T02:31:21;27.80;71.60
39969;DHT22;25648;47.808;19.004;2022-08-25T02:33:47;28.10;70.90
39969;DHT22;25648;47.808;19.004;2022-08-25T02:36:13;28.10;70.60
39969;DHT22;25648;47.808;19.004;2022-08-25T02:38:39;28.30;70.20
39969;DHT22;25648;47.808;19.004;2022-08-25T02:41:15;28.40;70.10
39969;DHT22;25648;47.808;19.004;2022-08-25T02:43:42;28.40;69.40
39969;DHT22;25648;47.808;19.004;2022-08-25T02:46:09;28.50;69.30
39969;DHT22;25648;47.808;19.004;2022-08-25T02:48:36;28.50;69.20
39969;DHT22;25648;47.808;19.004;2022-08-25T02:51:04;28.40;69.50
39969;DHT22;25648;47.808;19.004;2022-08-25T02:53:32;27.90;71.60
39969;DHT22;25648;47.808;19.004;2022-08-25T02:55:59;27.70;71.80
39969;DHT22;25648;47.808;19.004;2022-08-25T02:58:24;27.60;72.30
39969;DHT22;25648;47.808;19.004;2022-08-25T03:00:50;27.70;71.60
39969;DHT22;25648;47.808;19.004;2022-08-25T03:03:16;27.90;71.00
39969;DHT22;25648;47.808;19.004;2022-08-25T03:05:42;28.00;70.40
39969;DHT22;25648;47.808;19.004;2022-08-25T03:08:08;28.00;70.70
39969;DHT22;25648;47.808;19.004;2022-08-25T03:10:34;27.80;70.60
39969;DHT22;25648;47.808;19.004;2022-08-25T03:13:00;27.90;70.10
39969;DHT22;25648;47.808;19.004;2022-08-25T03:15:26;27.90;70.20
39969;DHT22;25648;47.808;19.004;2022-08-25T03:17:54;28.00;70.20
39969;DHT22;25648;47.808;19.004;2022-08-25T03:20:21;28.00;70.20
39969;DHT22;25648;47.808;19.004;2022-08-25T03:22:47;28.10;69.60
39969;DHT22;25648;47.808;19.004;2022-08-25T03:25:14;28.20;69.30
39969;DHT22;25648;47.808;19.004;2022-08-25T03:27:58;28.10;69.20
39969;DHT22;25648;47.808;19.004;2022-08-25T03:30:25;27.90;70.70
39969;DHT22;25648;47.808;19.004;2022-08-25T03:32:50;27.70;71.10
39969;DHT22;25648;47.808;19.004;2022-08-25T03:35:16;27.80;70.60
39969;DHT22;25648;47.808;19.004;2022-08-25T03:37:42;27.80;70.60
39969;DHT22;25648;47.808;19.004;2022-08-25T03:40:10;27.60;71.30
39969;DHT22;25648;47.808;19.004;2022-08-25T03:42:44;27.70;71.00
39969;DHT22;25648;47.808;19.004;2022-08-25T03:45:10;27.80;70.30
39969;DHT22;25648;47.808;19.004;2022-08-25T03:47:37;27.90;69.80
39969;DHT22;25648;47.808;19.004;2022-08-25T03:50:05;28.00;69.50
39969;DHT22;25648;47.808;19.004;2022-08-25T03:52:31;27.80;70.30
39969;DHT22;25648;47.808;19.004;2022-08-25T03:54:56;27.80;70.30
39969;DHT22;25648;47.808;19.004;2022-08-25T03:57:22;27.60;71.50
39969;DHT22;25648;47.808;19.004;2022-08-25T03:59:48;27.60;70.90
39969;DHT22;25648;47.808;19.004;2022-08-25T04:02:13;27.70;70.30
39969;DHT22;25648;47.808;19.004;2022-08-25T04:04:39;27.90;70.00
39969;DHT22;25648;47.808;19.004;2022-08-25T04:07:05;28.00;69.80
39969;DHT22;25648;47.808;19.004;2022-08-25T04:09:31;27.80;70.60
39969;DHT22;25648;47.808;19.004;2022-08-25T04:11:57;27.90;70.10
39969;DHT22;25648;47.808;19.004;2022-08-25T04:14:23;28.10;69.80
39969;DHT22;25648;47.808;19.004;2022-08-25T04:16:49;28.10;69.40
39969;DHT22;25648;47.808;19.004;2022-08-25T04:19:15;28.20;69.40
39969;DHT22;25648;47.808;19.004;2022-08-25T04:21:41;28.20;69.30
39969;DHT22;25648;47.808;19.004;2022-08-25T04:24:09;28.20;69.60
39969;DHT22;25648;47.808;19.004;2022-08-25T04:26:41;28.30;69.30
39969;DHT22;25648;47.808;19.004;2022-08-25T04:29:08;28.30;69.30
39969;DHT22;25648;47.808;19.004;2022-08-25T04:31:35;28.20;69.40
39969;DHT22;25648;47.808;19.004;2022-08-25T04:34:04;28.20;69.30
39969;DHT22;25648;47.808;19.004;2022-08-25T04:36:31;28.10;69.80
39969;DHT22;25648;47.808;19.004;2022-08-25T04:38:57;27.80;70.90
39969;DHT22;25648;47.808;19.004;2022-08-25T04:41:24;27.80;71.10
39969;DHT22;25648;47.808;19.004;2022-08-25T04:43:50;28.00;70.50
39969;DHT22;25648;47.808;19.004;2022-08-25T04:46:23;28.00;70.40
39969;DHT22;25648;47.808;19.004;2022-08-25T04:48:50;28.10;70.30
39969;DHT22;25648;47.808;19.004;2022-08-25T04:51:22;28.10;70.50
39969;DHT22;25648;47.808;19.004;2022-08-25T04:53:48;28.10;70.60
39969;DHT22;25648;47.808;19.004;2022-08-25T04:56:17;28.20;70.50
39969;DHT22;25648;47.808;19.004;2022-08-25T04:58:43;28.20;70.10
39969;DHT22;25648;47.808;19.004;2022-08-25T05:01:16;28.00;71.60
39969;DHT22;25648;47.808;19.004;2022-08-25T05:03:44;28.10;70.90
39969;DHT22;25648;47.808;19.004;2022-08-25T05:06:11;28.00;71.50
39969;DHT22;25648;47.808;19.004;2022-08-25T05:08:37;28.10;71.20
39969;DHT22;25648;47.808;19.004;2022-08-25T05:11:09;28.30;70.80
39969;DHT22;25648;47.808;19.004;2022-08-25T05:13:37;28.40;70.70
39969;DHT22;25648;47.808;19.004;2022-08-25T05:16:03;28.50;70.50
39969;DHT22;25648;47.808;19.004;2022-08-25T05:18:30;28.60;71.00
39969;DHT22;25648;47.808;19.004;2022-08-25T05:21:03;28.70;70.20
39969;DHT22;25648;47.808;19.004;2022-08-25T05:23:30;28.80;70.10
39969;DHT22;25648;47.808;19.004;2022-08-25T05:26:02;28.90;69.90
39969;DHT22;25648;47.808;19.004;2022-08-25T05:28:28;28.90;70.00
39969;DHT22;25648;47.808;19.004;2022-08-25T05:30:58;28.90;70.00
39969;DHT22;25648;47.808;19.004;2022-08-25T05:33:24;28.80;70.80
39969;DHT22;25648;47.808;19.004;2022-08-25T05:35:50;28.80;70.60
39969;DHT22;25648;47.808;19.004;2022-08-25T05:38:17;28.80;70.70
39969;DHT22;25648;47.808;19.004;2022-08-25T05:40:42;28.70;71.90
39969;DHT22;25648;47.808;19.004;2022-08-25T05:43:08;28.60;72.00
39969;DHT22;25648;47.808;19.004;2022-08-25T05:45:35;28.90;71.40
39969;DHT22;25648;47.808;19.004;2022-08-25T05:48:01;29.20;71.20
39969;DHT22;25648;47.808;19.004;2022-08-25T05:50:27;29.30;70.50
39969;DHT22;25648;47.808;19.004;2022-08-25T05:52:53;29.30;70.20
39969;DHT22;25648;47.808;19.004;2022-08-25T05:55:18;29.50;70.00
39969;DHT22;25648;47.808;19.004;2022-08-25T05:57:44;29.60;70.10
39969;DHT22;25648;47.808;19.004;2022-08-25T06:00:10;29.50;70.80
39969;DHT22;25648;47.808;19.004;2022-08-25T06:02:37;29.10;71.30
39969;DHT22;25648;47.808;19.004;2022-08-25T06:07:39;29.50;71.00
39969;DHT22;25648;47.808;19.004;2022-08-25T06:10:07;29.50;71.20
39969;DHT22;25648;47.808;19.004;2022-08-25T06:12:35;29.30;72.00
39969;DHT22;25648;47.808;19.004;2022-08-25T06:15:02;29.40;72.00
39969;DHT22;25648;47.808;19.004;2022-08-25T06:17:28;29.50;71.80
39969;DHT22;25648;47.808;19.004;2022-08-25T06:19:54;29.60;70.90
39969;DHT22;25648;47.808;19.004;2022-08-25T06:22:20;29.70;71.00
39969;DHT22;25648;47.808;19.004;2022-08-25T06:24:46;29.80;71.90
39969;DHT22;25648;47.808;19.004;2022-08-25T06:27:12;29.60;71.20
39969;DHT22;25648;47.808;19.004;2022-08-25T06:29:38;29.70;71.20
39969;DHT22;25648;47.808;19.004;2022-08-25T06:32:04;30.00;70.60
39969;DHT22;25648;47.808;19.004;2022-08-25T06:34:30;30.20;70.10
39969;DHT22;25648;47.808;19.004;2022-08-25T06:36:55;30.40;69.80
39969;DHT22;25648;47.808;19.004;2022-08-25T06:39:22;30.50;68.60
39969;DHT22;25648;47.808;19.004;2022-08-25T06:41:55;30.40;69.60
39969;DHT22;25648;47.808;19.004;2022-08-25T06:44:22;30.50;69.30
39969;DHT22;25648;47.808;19.004;2022-08-25T06:46:48;30.50;70.60
39969;DHT22;25648;47.808;19.004;2022-08-25T06:49:13;30.80;69.50
39969;DHT22;25648;47.808;19.004;2022-08-25T06:51:39;30.90;68.50
39969;DHT22;25648;47.808;19.004;2022-08-25T06:54:08;30.40;70.20
39969;DHT22;25648;47.808;19.004;2022-08-25T06:56:38;30.20;70.90
39969;DHT22;25648;47.808;19.004;2022-08-25T06:59:05;30.40;69.50
39969;DHT22;25648;47.808;19.004;2022-08-25T07:01:31;30.60;69.10
39969;DHT22;25648;47.808;19.004;2022-08-25T07:03:59;30.80;68.90
39969;DHT22;25648;47.808;19.004;2022-08-25T07:06:26;31.10;69.20
39969;DHT22;25648;47.808;19.004;2022-08-25T07:08:53;31.20;68.60
39969;DHT22;25648;47.808;19.004;2022-08-25T07:11:18;31.30;68.40
39969;DHT22;25648;47.808;19.004;2022-08-25T07:13:48;31.20;68.60
39969;DHT22;25648;47.808;19.004;2022-08-25T07:16:14;31.40;67.90
39969;DHT22;25648;47.808;19.004;2022-08-25T07:18:40;31.50;67.60
39969;DHT22;25648;47.808;19.004;2022-08-25T07:21:06;31.60;68.70
39969;DHT22;25648;47.808;19.004;2022-08-25T07:23:32;31.60;67.80
39969;DHT22;25648;47.808;19.004;2022-08-25T07:26:08;31.70;67.90
39969;DHT22;25648;47.808;19.004;2022-08-25T07:28:35;31.70;68.80
39969;DHT22;25648;47.808;19.004;2022-08-25T07:31:00;31.70;69.30
39969;DHT22;25648;47.808;19.004;2022-08-25T07:33:26;31.80;68.70
39969;DHT22;25648;47.808;19.004;2022-08-25T07:35:52;31.90;67.60
39969;DHT22;25648;47.808;19.004;2022-08-25T07:38:18;32.00;66.60
39969;DHT22;25648;47.808;19.004;2022-08-25T07:40:44;32.10;68.50
39969;DHT22;25648;47.808;19.004;2022-08-25T07:43:09;32.10;68.90
39969;DHT22;25648;47.808;19.004;2022-08-25T07:45:38;32.10;69.00
39969;DHT22;25648;47.808;19.004;2022-08-25T07:48:10;32.10;69.40
39969;DHT22;25648;47.808;19.004;2022-08-25T07:50:38;32.10;68.80
39969;DHT22;25648;47.808;19.004;2022-08-25T07:53:07;32.30;68.30
39969;DHT22;25648;47.808;19.004;2022-08-25T07:55:33;32.50;67.20
39969;DHT22;25648;47.808;19.004;2022-08-25T07:58:02;32.50;67.50
39969;DHT22;25648;47.808;19.004;2022-08-25T08:00:28;32.70;67.10
39969;DHT22;25648;47.808;19.004;2022-08-25T08:02:56;32.80;66.20
39969;DHT22;25648;47.808;19.004;2022-08-25T08:05:23;32.90;65.90
39969;DHT22;25648;47.808;19.004;2022-08-25T08:07:50;33.00;65.80
39969;DHT22;25648;47.808;19.004;2022-08-25T08:10:16;33.00;66.70
39969;DHT22;25648;47.808;19.004;2022-08-25T08:12:42;33.10;67.70
39969;DHT22;25648;47.808;19.004;2022-08-25T08:15:10;32.90;66.60
39969;DHT22;25648;47.808;19.004;2022-08-25T08:17:37;32.60;67.40
39969;DHT22;25648;47.808;19.004;2022-08-25T08:20:04;32.50;68.80
39969;DHT22;25648;47.808;19.004;2022-08-25T08:22:38;32.80;67.80
39969;DHT22;25648;47.808;19.004;2022-08-25T08:25:07;33.10;65.20
39969;DHT22;25648;47.808;19.004;2022-08-25T08:27:32;33.30;64.20
39969;DHT22;25648;47.808;19.004;2022-08-25T08:29:59;33.30;64.30
39969;DHT22;25648;47.808;19.004;2022-08-25T08:32:25;33.40;62.50
39969;DHT22;25648;47.808;19.004;2022-08-25T08:34:51;33.50;62.80
39969;DHT22;25648;47.808;19.004;2022-08-25T08:37:17;33.70;62.60
39969;DHT22;25648;47.808;19.004;2022-08-25T08:39:43;33.80;62.90
39969;DHT22;25648;47.808;19.004;2022-08-25T08:53:50;34.10;60.50
39969;DHT22;25648;47.808;19.004;2022-08-25T08:56:27;34.00;61.20
39969;DHT22;25648;47.808;19.004;2022-08-25T08:59:11;34.20;61.60
39969;DHT22;25648;47.808;19.004;2022-08-25T09:05:27;34.40;60.70
39969;DHT22;25648;47.808;19.004;2022-08-25T09:07:28;34.10;61.80
39969;DHT22;25648;47.808;19.004;2022-08-25T09:09:55;34.10;61.40
39969;DHT22;25648;47.808;19.004;2022-08-25T09:12:39;34.30;60.90
39969;DHT22;25648;47.808;19.004;2022-08-25T09:18:29;34.60;61.00
39969;DHT22;25648;47.808;19.004;2022-08-25T09:26:36;34.40;61.80
39969;DHT22;25648;47.808;19.004;2022-08-25T09:29:09;34.30;62.20
39969;DHT22;25648;47.808;19.004;2022-08-25T09:31:39;34.50;61.80
39969;DHT22;25648;47.808;19.004;2022-08-25T09:34:15;34.70;61.60
39969;DHT22;25648;47.808;19.004;2022-08-25T09:36:42;34.90;60.10
39969;DHT22;25648;47.808;19.004;2022-08-25T09:39:10;35.10;61.50
39969;DHT22;25648;47.808;19.004;2022-08-25T09:41:53;35.20;60.50
39969;DHT22;25648;47.808;19.004;2022-08-25T09:52:45;35.40;58.60
39969;DHT22;25648;47.808;19.004;2022-08-25T09:57:51;35.60;57.10
39969;DHT22;25648;47.808;19.004;2022-08-25T10:03:21;35.80;58.00
39969;DHT22;25648;47.808;19.004;2022-08-25T10:11:33;35.70;57.00
39969;DHT22;25648;47.808;19.004;2022-08-25T10:14:06;35.40;54.30
39969;DHT22;25648;47.808;19.004;2022-08-25T10:16:32;35.50;56.20
39969;DHT22;25648;47.808;19.004;2022-08-25T10:19:20;35.40;55.60
39969;DHT22;25648;47.808;19.004;2022-08-25T10:24:48;35.00;53.40
39969;DHT22;25648;47.808;19.004;2022-08-25T10:30:08;34.50;53.60
39969;DHT22;25648;47.808;19.004;2022-08-25T10:40:53;35.70;55.30
39969;DHT22;25648;47.808;19.004;2022-08-25T10:49:18;37.00;52.90
39969;DHT22;25648;47.808;19.004;2022-08-25T10:51:53;36.60;51.80
39969;DHT22;25648;47.808;19.004;2022-08-25T11:05:03;36.30;53.40
39969;DHT22;25648;47.808;19.004;2022-08-25T11:07:44;36.20;53.60
39969;DHT22;25648;47.808;19.004;2022-08-25T11:10:17;36.40;53.50
39969;DHT22;25648;47.808;19.004;2022-08-25T11:12:50;36.60;53.50
39969;DHT22;25648;47.808;19.004;2022-08-25T11:18:04;36.30;52.40
39969;DHT22;25648;47.808;19.004;2022-08-25T11:20:48;36.40;54.40
39969;DHT22;25648;47.808;19.004;2022-08-25T11:23:35;36.70;54.30
39969;DHT22;25648;47.808;19.004;2022-08-25T11:26:08;36.60;53.30
39969;DHT22;25648;47.808;19.004;2022-08-25T11:31:13;36.50;53.80
39969;DHT22;25648;47.808;19.004;2022-08-25T11:33:39;36.60;53.70
39969;DHT22;25648;47.808;19.004;2022-08-25T11:45:39;36.40;51.90
39969;DHT22;25648;47.808;19.004;2022-08-25T11:51:08;36.00;54.20
39969;DHT22;25648;47.808;19.004;2022-08-25T11:53:39;36.20;51.30
39969;DHT22;25648;47.808;19.004;2022-08-25T11:56:12;35.90;52.30
39969;DHT22;25648;47.808;19.004;2022-08-25T11:58:55;35.70;52.90
39969;DHT22;25648;47.808;19.004;2022-08-25T12:04:40;35.50;53.00
39969;DHT22;25648;47.808;19.004;2022-08-25T12:12:59;35.90;51.90
39969;DHT22;25648;47.808;19.004;2022-08-25T12:15:53;35.50;53.10
39969;DHT22;25648;47.808;19.004;2022-08-25T12:23:41;36.00;52.30
39969;DHT22;25648;47.808;19.004;2022-08-25T12:29:06;36.30;53.60
39969;DHT22;25648;47.808;19.004;2022-08-25T12:31:57;36.50;52.00
39969;DHT22;25648;47.808;19.004;2022-08-25T12:37:15;36.50;52.90
39969;DHT22;25648;47.808;19.004;2022-08-25T12:45:11;36.70;51.70
39969;DHT22;25648;47.808;19.004;2022-08-25T12:47:46;36.90;52.80
39969;DHT22;25648;47.808;19.004;2022-08-25T12:50:40;36.70;52.20
39969;DHT22;25648;47.808;19.004;2022-08-25T12:53:11;36.70;52.50
39969;DHT22;25648;47.808;19.004;2022-08-25T12:55:45;36.80;52.20
39969;DHT22;25648;47.808;19.004;2022-08-25T12:58:12;36.80;52.40
39969;DHT22;25648;47.808;19.004;2022-08-25T13:09:36;37.00;53.80
39969;DHT22;25648;47.808;19.004;2022-08-25T13:12:29;37.00;53.90
39969;DHT22;25648;47.808;19.004;2022-08-25T13:14:57;37.00;54.40
39969;DHT22;25648;47.808;19.004;2022-08-25T13:17:34;36.80;53.70
39969;DHT22;25648;47.808;19.004;2022-08-25T13:20:27;36.80;54.90
39969;DHT22;25648;47.808;19.004;2022-08-25T13:22:59;36.80;54.60
39969;DHT22;25648;47.808;19.004;2022-08-25T13:25:29;36.60;54.20
39969;DHT22;25648;47.808;19.004;2022-08-25T13:27:59;36.70;56.00
39969;DHT22;25648;47.808;19.004;2022-08-25T13:30:32;36.50;54.90
39969;DHT22;25648;47.808;19.004;2022-08-25T13:32:59;36.30;54.10
39969;DHT22;25648;47.808;19.004;2022-08-25T13:35:28;36.40;54.50
39969;DHT22;25648;47.808;19.004;2022-08-25T13:38:12;36.70;54.20
39969;DHT22;25648;47.808;19.004;2022-08-25T13:40:37;36.80;54.20
39969;DHT22;25648;47.808;19.004;2022-08-25T13:43:06;36.90;55.60
39969;DHT22;25648;47.808;19.004;2022-08-25T13:45:37;37.00;54.60
39969;DHT22;25648;47.808;19.004;2022-08-25T13:48:04;37.00;55.20
39969;DHT22;25648;47.808;19.004;2022-08-25T13:50:34;37.00;55.80
39969;DHT22;25648;47.808;19.004;2022-08-25T13:55:58;37.20;56.40
39969;DHT22;25648;47.808;19.004;2022-08-25T13:58:28;37.20;56.00
39969;DHT22;25648;47.808;19.004;2022-08-25T14:01:19;37.30;56.10
39969;DHT22;25648;47.808;19.004;2022-08-25T14:03:47;37.20;55.90
39969;DHT22;25648;47.808;19.004;2022-08-25T14:08:47;37.10;56.60
39969;DHT22;25648;47.808;19.004;2022-08-25T14:11:44;37.20;56.00
39969;DHT22;25648;47.808;19.004;2022-08-25T14:14:13;37.20;56.30
39969;DHT22;25648;47.808;19.004;2022-08-25T14:17:21;37.30;55.90
39969;DHT22;25648;47.808;19.004;2022-08-25T14:19:46;37.10;55.50
39969;DHT22;25648;47.808;19.004;2022-08-25T14:22:13;37.00;56.20
39969;DHT22;25648;47.808;19.004;2022-08-25T14:24:39;36.90;55.20
39969;DHT22;25648;47.808;19.004;2022-08-25T14:27:05;36.60;55.60
39969;DHT22;25648;47.808;19.004;2022-08-25T14:29:31;36.30;56.80
39969;DHT22;25648;47.808;19.004;2022-08-25T14:31:57;36.40;57.00
39969;DHT22;25648;47.808;19.004;2022-08-25T14:34:29;36.60;57.40
39969;DHT22;25648;47.808;19.004;2022-08-25T14:36:56;36.70;57.10
39969;DHT22;25648;47.808;19.004;2022-08-25T14:39:25;36.70;56.50
39969;DHT22;25648;47.808;19.004;2022-08-25T14:41:50;36.80;56.80
39969;DHT22;25648;47.808;19.004;2022-08-25T14:44:16;36.80;57.10
39969;DHT22;25648;47.808;19.004;2022-08-25T14:46:51;36.60;57.40
39969;DHT22;25648;47.808;19.004;2022-08-25T14:49:24;36.80;57.80
39969;DHT22;25648;47.808;19.004;2022-08-25T14:51:55;36.70;57.10
39969;DHT22;25648;47.808;19.004;2022-08-25T14:54:25;36.60;57.10
39969;DHT22;25648;47.808;19.004;2022-08-25T14:56:51;36.70;57.70
39969;DHT22;25648;47.808;19.004;2022-08-25T14:59:17;36.80;57.60
39969;DHT22;25648;47.808;19.004;2022-08-25T15:01:43;36.80;57.40
39969;DHT22;25648;47.808;19.004;2022-08-25T15:04:18;36.70;57.30
39969;DHT22;25648;47.808;19.004;2022-08-25T15:06:45;36.50;56.90
39969;DHT22;25648;47.808;19.004;2022-08-25T15:09:14;36.50;57.00
39969;DHT22;25648;47.808;19.004;2022-08-25T15:11:45;36.70;56.30
39969;DHT22;25648;47.808;19.004;2022-08-25T15:14:13;36.80;55.50
39969;DHT22;25648;47.808;19.004;2022-08-25T15:16:47;36.70;54.50
39969;DHT22;25648;47.808;19.004;2022-08-25T15:19:16;36.60;54.50
39969;DHT22;25648;47.808;19.004;2022-08-25T15:21:43;36.70;54.10
39969;DHT22;25648;47.808;19.004;2022-08-25T15:24:10;36.80;54.10
39969;DHT22;25648;47.808;19.004;2022-08-25T15:26:41;36.80;53.90
39969;DHT22;25648;47.808;19.004;2022-08-25T15:29:07;36.80;53.40
39969;DHT22;25648;47.808;19.004;2022-08-25T15:31:33;36.80;54.90
39969;DHT22;25648;47.808;19.004;2022-08-25T15:33:59;36.70;56.40
39969;DHT22;25648;47.808;19.004;2022-08-25T15:36:25;36.70;56.10
39969;DHT22;25648;47.808;19.004;2022-08-25T15:38:51;36.60;56.30
39969;DHT22;25648;47.808;19.004;2022-08-25T15:41:18;36.60;56.40
39969;DHT22;25648;47.808;19.004;2022-08-25T15:43:44;36.60;57.00
39969;DHT22;25648;47.808;19.004;2022-08-25T15:46:12;36.50;56.70
39969;DHT22;25648;47.808;19.004;2022-08-25T15:48:40;36.50;56.90
39969;DHT22;25648;47.808;19.004;2022-08-25T15:51:06;36.50;57.20
39969;DHT22;25648;47.808;19.004;2022-08-25T15:53:33;36.50;57.50
39969;DHT22;25648;47.808;19.004;2022-08-25T15:55:59;36.40;57.50
39969;DHT22;25648;47.808;19.004;2022-08-25T15:58:26;36.30;57.70
39969;DHT22;25648;47.808;19.004;2022-08-25T16:00:52;36.10;57.60
39969;DHT22;25648;47.808;19.004;2022-08-25T16:03:18;36.10;58.30
39969;DHT22;25648;47.808;19.004;2022-08-25T16:05:43;36.10;58.60
39969;DHT22;25648;47.808;19.004;2022-08-25T16:08:10;36.10;58.30
39969;DHT22;25648;47.808;19.004;2022-08-25T16:10:39;36.20;58.30
39969;DHT22;25648;47.808;19.004;2022-08-25T16:13:06;36.00;57.70
39969;DHT22;25648;47.808;19.004;2022-08-25T16:15:32;36.00;56.80
39969;DHT22;25648;47.808;19.004;2022-08-25T16:17:59;35.90;58.50
39969;DHT22;25648;47.808;19.004;2022-08-25T16:20:27;35.80;58.30
39969;DHT22;25648;47.808;19.004;2022-08-25T16:22:53;35.70;58.50
39969;DHT22;25648;47.808;19.004;2022-08-25T16:25:19;35.70;59.10
39969;DHT22;25648;47.808;19.004;2022-08-25T16:27:45;35.70;59.80
39969;DHT22;25648;47.808;19.004;2022-08-25T16:30:12;35.60;59.70
39969;DHT22;25648;47.808;19.004;2022-08-25T16:32:38;35.60;59.40
39969;DHT22;25648;47.808;19.004;2022-08-25T16:35:05;35.60;59.50
39969;DHT22;25648;47.808;19.004;2022-08-25T16:37:32;35.60;59.00
39969;DHT22;25648;47.808;19.004;2022-08-25T16:39:59;35.60;59.80
39969;DHT22;25648;47.808;19.004;2022-08-25T16:42:25;35.50;60.00
39969;DHT22;25648;47.808;19.004;2022-08-25T16:44:51;35.50;59.70
39969;DHT22;25648;47.808;19.004;2022-08-25T16:47:17;35.40;60.80
39969;DHT22;25648;47.808;19.004;2022-08-25T16:49:44;35.30;61.10
39969;DHT22;25648;47.808;19.004;2022-08-25T16:52:09;35.20;60.80
39969;DHT22;25648;47.808;19.004;2022-08-25T16:54:54;35.10;60.60
39969;DHT22;25648;47.808;19.004;2022-08-25T16:57:40;35.10;60.10
39969;DHT22;25648;47.808;19.004;2022-08-25T17:00:09;35.20;60.60
39969;DHT22;25648;47.808;19.004;2022-08-25T17:02:37;35.10;60.90
39969;DHT22;25648;47.808;19.004;2022-08-25T17:05:04;35.00;61.40
39969;DHT22;25648;47.808;19.004;2022-08-25T17:07:31;34.90;61.10
39969;DHT22;25648;47.808;19.004;2022-08-25T17:09:57;34.80;61.10
39969;DHT22;25648;47.808;19.004;2022-08-25T17:12:24;34.60;62.00
39969;DHT22;25648;47.808;19.004;2022-08-25T17:14:51;34.60;62.00
39969;DHT22;25648;47.808;19.004;2022-08-25T17:17:17;34.60;61.80
39969;DHT22;25648;47.808;19.004;2022-08-25T17:19:43;34.50;61.20
39969;DHT22;25648;47.808;19.004;2022-08-25T17:22:09;34.50;61.30
39969;DHT22;25648;47.808;19.004;2022-08-25T17:24:39;34.50;61.00
39969;DHT22;25648;47.808;19.004;2022-08-25T17:27:05;34.40;60.80
39969;DHT22;25648;47.808;19.004;2022-08-25T17:29:31;34.40;60.60
39969;DHT22;25648;47.808;19.004;2022-08-25T17:31:57;34.30;61.10
39969;DHT22;25648;47.808;19.004;2022-08-25T17:34:23;34.20;61.10
39969;DHT22;25648;47.808;19.004;2022-08-25T17:36:50;34.20;60.90
39969;DHT22;25648;47.808;19.004;2022-08-25T17:39:16;34.00;61.10
39969;DHT22;25648;47.808;19.004;2022-08-25T17:41:44;34.00;61.30